sensor_id;sensor_type;location;lat;lon;timestamp;P1;durP1;ratioP1;P2;durP2;ratioP2
52480;SDS011;38393;52.404;13.532;2023-03-14T00:00:34;2.00;;;1.30;;
52480;SDS011;38393;52.404;13.532;2023-03-14T00:03:00;1.53;;;1.10;;
52480;SDS011;38393;52.404;13.532;2023-03-14T00:05:25;2.13;;;1.30;;
52480;SDS011;38393;52.404;13.532;2023-03-14T00:07:51;2.90;;;1.67;;
52480;SDS011;38393;52.404;13.532;2023-03-14T00:10:16;1.60;;;1.30;;
52480;SDS011;38393;52.404;13.532;2023-03-14T00:12:43;2.23;;;1.50;;
52480;SDS011;38393;52.404;13.532;2023-03-14T00:15:09;1.50;;;1.37;;
52480;SDS011;38393;52.404;13.532;2023-03-14T00:17:35;2.27;;;1.47;;
52480;SDS011;38393;52.404;13.532;2023-03-14T00:20:02;2.50;;;1.60;;
52480;SDS011;38393;52.404;13.532;2023-03-14T00:22:33;2.90;;;1.87;;
52480;SDS011;38393;52.404;13.532;2023-03-14T00:25:00;2.47;;;1.37;;
52480;SDS011;38393;52.404;13.532;2023-03-14T00:27:26;3.00;;;1.40;;
52480;SDS011;38393;52.404;13.532;2023-03-14T00:29:51;2.33;;;1.50;;
52480;SDS011;38393;52.404;13.532;2023-03-14T00:32:16;3.53;;;1.57;;
52480;SDS011;38393;52.404;13.532;2023-03-14T00:34:42;1.73;;;1.57;;
52480;SDS011;38393;52.404;13.532;2023-03-14T00:37:08;1.50;;;1.40;;
52480;SDS011;38393;52.404;13.532;2023-03-14T00:39:33;3.33;;;1.43;;
52480;SDS011;38393;52.404;13.532;2023-03-14T00:41:59;4.23;;;1.50;;
52480;SDS011;38393;52.404;13.532;2023-03-14T00:44:24;1.80;;;1.50;;
52480;SDS011;38393;52.404;13.532;2023-03-14T00:46:50;1.40;;;1.30;;
52480;SDS011;38393;52.404;13.532;2023-03-14T00:49:15;3.33;;;1.30;;
52480;SDS011;38393;52.404;13.532;2023-03-14T00:51:41;3.80;;;1.33;;
52480;SDS011;38393;52.404;13.532;2023-03-14T00:54:06;2.77;;;1.60;;
52480;SDS011;38393;52.404;13.532;2023-03-14T00:56:32;4.37;;;1.57;;
52480;SDS011;38393;52.404;13.532;2023-03-14T00:58:57;2.80;;;1.40;;
52480;SDS011;38393;52.404;13.532;2023-03-14T01:01:23;3.77;;;1.80;;
52480;SDS011;38393;52.404;13.532;2023-03-14T01:03:52;2.47;;;1.43;;
52480;SDS011;38393;52.404;13.532;2023-03-14T01:06:20;2.17;;;1.60;;
52480;SDS011;38393;52.404;13.532;2023-03-14T01:08:47;2.13;;;1.67;;
52480;SDS011;38393;52.404;13.532;2023-03-14T01:11:15;1.63;;;1.37;;
52480;SDS011;38393;52.404;13.532;2023-03-14T01:13:42;3.67;;;1.40;;
52480;SDS011;38393;52.404;13.532;2023-03-14T01:16:09;1.60;;;1.30;;
52480;SDS011;38393;52.404;13.532;2023-03-14T01:18:35;2.47;;;1.40;;
52480;SDS011;38393;52.404;13.532;2023-03-14T01:21:03;1.60;;;1.50;;
52480;SDS011;38393;52.404;13.532;2023-03-14T01:23:34;1.77;;;1.50;;
52480;SDS011;38393;52.404;13.532;2023-03-14T01:25:59;2.03;;;1.40;;
52480;SDS011;38393;52.404;13.532;2023-03-14T01:28:25;1.60;;;1.50;;
52480;SDS011;38393;52.404;13.532;2023-03-14T01:30:50;2.10;;;1.50;;
52480;SDS011;38393;52.404;13.532;2023-03-14T01:33:15;2.37;;;1.30;;
52480;SDS011;38393;52.404;13.532;2023-03-14T01:35:41;1.80;;;1.30;;
52480;SDS011;38393;52.404;13.532;2023-03-14T01:38:15;3.40;;;1.30;;
52480;SDS011;38393;52.404;13.532;2023-03-14T01:40:42;2.50;;;1.30;;
52480;SDS011;38393;52.404;13.532;2023-03-14T01:43:16;1.80;;;1.30;;
52480;SDS011;38393;52.404;13.532;2023-03-14T01:51:22;1.77;;;1.40;;
52480;SDS011;38393;52.404;13.532;2023-03-14T01:54:23;2.57;;;1.20;;
52480;SDS011;38393;52.404;13.532;2023-03-14T01:56:53;1.40;;;1.20;;
52480;SDS011;38393;52.404;13.532;2023-03-14T01:59:24;1.67;;;1.33;;
52480;SDS011;38393;52.404;13.532;2023-03-14T02:01:51;3.47;;;1.43;;
52480;SDS011;38393;52.404;13.532;2023-03-14T02:04:18;1.53;;;1.30;;
52480;SDS011;38393;52.404;13.532;2023-03-14T02:06:53;1.57;;;1.30;;
52480;SDS011;38393;52.404;13.532;2023-03-14T02:09:26;3.67;;;1.30;;
52480;SDS011;38393;52.404;13.532;2023-03-14T02:11:52;3.00;;;1.20;;
52480;SDS011;38393;52.404;13.532;2023-03-14T02:14:34;1.93;;;1.30;;
52480;SDS011;38393;52.404;13.532;2023-03-14T02:17:01;2.20;;;1.20;;
52480;SDS011;38393;52.404;13.532;2023-03-14T02:19:45;3.30;;;1.70;;
52480;SDS011;38393;52.404;13.532;2023-03-14T02:22:23;2.87;;;1.43;;
52480;SDS011;38393;52.404;13.532;2023-03-14T02:24:53;1.70;;;1.30;;
52480;SDS011;38393;52.404;13.532;2023-03-14T02:27:34;1.50;;;1.33;;
52480;SDS011;38393;52.404;13.532;2023-03-14T02:32:55;1.50;;;1.13;;
52480;SDS011;38393;52.404;13.532;2023-03-14T02:35:29;1.33;;;1.20;;
52480;SDS011;38393;52.404;13.532;2023-03-14T02:38:19;3.20;;;1.37;;
52480;SDS011;38393;52.404;13.532;2023-03-14T02:40:51;1.73;;;1.03;;
52480;SDS011;38393;52.404;13.532;2023-03-14T02:43:17;1.60;;;1.20;;
52480;SDS011;38393;52.404;13.532;2023-03-14T02:45:43;1.53;;;1.30;;
52480;SDS011;38393;52.404;13.532;2023-03-14T02:48:15;3.30;;;1.20;;
52480;SDS011;38393;52.404;13.532;2023-03-14T02:50:40;1.63;;;1.20;;
52480;SDS011;38393;52.404;13.532;2023-03-14T02:53:06;1.97;;;1.20;;
52480;SDS011;38393;52.404;13.532;2023-03-14T02:55:32;2.80;;;1.20;;
52480;SDS011;38393;52.404;13.532;2023-03-14T02:57:58;1.80;;;1.10;;
52480;SDS011;38393;52.404;13.532;2023-03-14T03:00:23;2.03;;;1.17;;
52480;SDS011;38393;52.404;13.532;2023-03-14T03:02:49;3.47;;;1.33;;
52480;SDS011;38393;52.404;13.532;2023-03-14T03:05:14;1.67;;;1.20;;
52480;SDS011;38393;52.404;13.532;2023-03-14T03:07:40;1.60;;;1.20;;
52480;SDS011;38393;52.404;13.532;2023-03-14T03:10:05;1.50;;;1.20;;
52480;SDS011;38393;52.404;13.532;2023-03-14T03:12:31;1.60;;;1.30;;
52480;SDS011;38393;52.404;13.532;2023-03-14T03:14:57;1.67;;;1.30;;
52480;SDS011;38393;52.404;13.532;2023-03-14T03:17:22;1.20;;;1.10;;
52480;SDS011;38393;52.404;13.532;2023-03-14T03:19:48;2.53;;;1.30;;
52480;SDS011;38393;52.404;13.532;2023-03-14T03:22:13;1.20;;;1.10;;
52480;SDS011;38393;52.404;13.532;2023-03-14T03:24:39;2.70;;;1.00;;
52480;SDS011;38393;52.404;13.532;2023-03-14T03:27:04;1.47;;;1.17;;
52480;SDS011;38393;52.404;13.532;2023-03-14T03:29:30;2.07;;;1.30;;
52480;SDS011;38393;52.404;13.532;2023-03-14T03:31:55;1.97;;;1.13;;
52480;SDS011;38393;52.404;13.532;2023-03-14T03:34:21;4.03;;;1.20;;
52480;SDS011;38393;52.404;13.532;2023-03-14T03:36:46;1.50;;;1.20;;
52480;SDS011;38393;52.404;13.532;2023-03-14T03:39:12;1.67;;;1.20;;
52480;SDS011;38393;52.404;13.532;2023-03-14T03:41:37;1.33;;;1.10;;
52480;SDS011;38393;52.404;13.532;2023-03-14T03:44:03;1.70;;;1.20;;
52480;SDS011;38393;52.404;13.532;2023-03-14T03:46:28;1.33;;;1.10;;
52480;SDS011;38393;52.404;13.532;2023-03-14T03:48:55;2.87;;;1.30;;
52480;SDS011;38393;52.404;13.532;2023-03-14T03:51:21;4.90;;;1.40;;
52480;SDS011;38393;52.404;13.532;2023-03-14T03:53:46;3.30;;;1.20;;
52480;SDS011;38393;52.404;13.532;2023-03-14T03:56:12;2.00;;;1.30;;
52480;SDS011;38393;52.404;13.532;2023-03-14T03:58:38;1.70;;;1.20;;
52480;SDS011;38393;52.404;13.532;2023-03-14T04:01:04;1.60;;;1.10;;
52480;SDS011;38393;52.404;13.532;2023-03-14T04:03:31;2.13;;;1.30;;
52480;SDS011;38393;52.404;13.532;2023-03-14T04:06:01;3.30;;;1.20;;
52480;SDS011;38393;52.404;13.532;2023-03-14T04:08:28;1.40;;;1.10;;
52480;SDS011;38393;52.404;13.532;2023-03-14T04:10:58;3.50;;;1.40;;
52480;SDS011;38393;52.404;13.532;2023-03-14T04:13:25;1.47;;;1.10;;
52480;SDS011;38393;52.404;13.532;2023-03-14T04:15:51;2.77;;;1.10;;
52480;SDS011;38393;52.404;13.532;2023-03-14T04:18:18;1.73;;;1.20;;
52480;SDS011;38393;52.404;13.532;2023-03-14T04:20:44;1.17;;;1.07;;
52480;SDS011;38393;52.404;13.532;2023-03-14T04:23:09;3.20;;;1.30;;
52480;SDS011;38393;52.404;13.532;2023-03-14T04:25:35;2.17;;;1.30;;
52480;SDS011;38393;52.404;13.532;2023-03-14T04:28:01;1.20;;;1.10;;
52480;SDS011;38393;52.404;13.532;2023-03-14T04:30:28;1.97;;;1.00;;
52480;SDS011;38393;52.404;13.532;2023-03-14T04:32:53;2.63;;;1.10;;
52480;SDS011;38393;52.404;13.532;2023-03-14T04:35:19;1.70;;;1.10;;
52480;SDS011;38393;52.404;13.532;2023-03-14T04:37:44;2.23;;;1.20;;
52480;SDS011;38393;52.404;13.532;2023-03-14T04:40:13;2.70;;;1.40;;
52480;SDS011;38393;52.404;13.532;2023-03-14T04:42:39;1.30;;;1.10;;
52480;SDS011;38393;52.404;13.532;2023-03-14T04:45:05;1.20;;;1.10;;
52480;SDS011;38393;52.404;13.532;2023-03-14T04:47:31;2.10;;;1.20;;
52480;SDS011;38393;52.404;13.532;2023-03-14T04:49:57;1.63;;;1.20;;
52480;SDS011;38393;52.404;13.532;2023-03-14T04:52:22;2.13;;;1.13;;
52480;SDS011;38393;52.404;13.532;2023-03-14T04:54:48;1.30;;;1.20;;
52480;SDS011;38393;52.404;13.532;2023-03-14T04:57:13;1.77;;;1.10;;
52480;SDS011;38393;52.404;13.532;2023-03-14T04:59:38;1.60;;;1.10;;
52480;SDS011;38393;52.404;13.532;2023-03-14T05:02:04;2.13;;;1.30;;
52480;SDS011;38393;52.404;13.532;2023-03-14T05:04:29;1.30;;;1.20;;
52480;SDS011;38393;52.404;13.532;2023-03-14T05:06:57;1.93;;;1.27;;
52480;SDS011;38393;52.404;13.532;2023-03-14T05:09:23;1.57;;;1.20;;
52480;SDS011;38393;52.404;13.532;2023-03-14T05:11:48;1.43;;;1.10;;
52480;SDS011;38393;52.404;13.532;2023-03-14T05:14:14;1.97;;;1.20;;
52480;SDS011;38393;52.404;13.532;2023-03-14T05:16:39;1.20;;;1.10;;
52480;SDS011;38393;52.404;13.532;2023-03-14T05:19:05;2.03;;;1.27;;
52480;SDS011;38393;52.404;13.532;2023-03-14T05:21:30;1.93;;;1.20;;
52480;SDS011;38393;52.404;13.532;2023-03-14T05:23:56;1.77;;;1.20;;
52480;SDS011;38393;52.404;13.532;2023-03-14T05:26:21;2.13;;;1.20;;
52480;SDS011;38393;52.404;13.532;2023-03-14T05:28:47;2.00;;;1.20;;
52480;SDS011;38393;52.404;13.532;2023-03-14T05:31:13;4.20;;;1.33;;
52480;SDS011;38393;52.404;13.532;2023-03-14T05:33:38;2.73;;;1.40;;
52480;SDS011;38393;52.404;13.532;2023-03-14T05:36:04;2.30;;;1.80;;
52480;SDS011;38393;52.404;13.532;2023-03-14T05:38:30;2.23;;;1.20;;
52480;SDS011;38393;52.404;13.532;2023-03-14T05:40:55;1.20;;;1.10;;
52480;SDS011;38393;52.404;13.532;2023-03-14T05:43:21;2.33;;;1.40;;
52480;SDS011;38393;52.404;13.532;2023-03-14T05:45:46;1.67;;;1.30;;
52480;SDS011;38393;52.404;13.532;2023-03-14T05:48:12;2.10;;;1.20;;
52480;SDS011;38393;52.404;13.532;2023-03-14T05:50:37;1.30;;;1.20;;
52480;SDS011;38393;52.404;13.532;2023-03-14T05:53:03;1.93;;;1.20;;
52480;SDS011;38393;52.404;13.532;2023-03-14T05:55:29;1.17;;;1.07;;
52480;SDS011;38393;52.404;13.532;2023-03-14T05:57:54;1.30;;;1.10;;
52480;SDS011;38393;52.404;13.532;2023-03-14T06:00:20;1.70;;;1.30;;
52480;SDS011;38393;52.404;13.532;2023-03-14T06:02:46;1.67;;;1.10;;
52480;SDS011;38393;52.404;13.532;2023-03-14T06:05:11;1.97;;;1.37;;
52480;SDS011;38393;52.404;13.532;2023-03-14T06:07:37;3.60;;;1.50;;
52480;SDS011;38393;52.404;13.532;2023-03-14T06:10:03;2.67;;;1.20;;
52480;SDS011;38393;52.404;13.532;2023-03-14T06:12:29;1.50;;;1.20;;
52480;SDS011;38393;52.404;13.532;2023-03-14T06:14:54;2.20;;;1.20;;
52480;SDS011;38393;52.404;13.532;2023-03-14T06:17:19;4.30;;;1.53;;
52480;SDS011;38393;52.404;13.532;2023-03-14T06:19:45;8.33;;;1.23;;
52480;SDS011;38393;52.404;13.532;2023-03-14T06:22:10;2.87;;;1.23;;
52480;SDS011;38393;52.404;13.532;2023-03-14T06:24:36;4.57;;;1.43;;
52480;SDS011;38393;52.404;13.532;2023-03-14T06:27:01;2.00;;;1.27;;
52480;SDS011;38393;52.404;13.532;2023-03-14T06:29:28;3.87;;;1.30;;
52480;SDS011;38393;52.404;13.532;2023-03-14T06:31:54;3.70;;;1.50;;
52480;SDS011;38393;52.404;13.532;2023-03-14T06:34:20;4.73;;;1.37;;
52480;SDS011;38393;52.404;13.532;2023-03-14T06:36:45;4.37;;;1.10;;
52480;SDS011;38393;52.404;13.532;2023-03-14T06:39:10;1.83;;;1.30;;
52480;SDS011;38393;52.404;13.532;2023-03-14T06:41:36;2.53;;;1.20;;
52480;SDS011;38393;52.404;13.532;2023-03-14T06:44:01;5.50;;;1.50;;
52480;SDS011;38393;52.404;13.532;2023-03-14T06:46:27;1.83;;;1.10;;
52480;SDS011;38393;52.404;13.532;2023-03-14T06:48:52;3.60;;;1.50;;
52480;SDS011;38393;52.404;13.532;2023-03-14T06:51:18;2.00;;;1.40;;
52480;SDS011;38393;52.404;13.532;2023-03-14T06:53:44;2.43;;;1.30;;
52480;SDS011;38393;52.404;13.532;2023-03-14T06:56:09;5.33;;;1.50;;
52480;SDS011;38393;52.404;13.532;2023-03-14T06:58:35;2.87;;;1.23;;
52480;SDS011;38393;52.404;13.532;2023-03-14T07:01:00;3.00;;;1.30;;
52480;SDS011;38393;52.404;13.532;2023-03-14T07:03:26;4.80;;;1.60;;
52480;SDS011;38393;52.404;13.532;2023-03-14T07:05:52;1.90;;;1.10;;
52480;SDS011;38393;52.404;13.532;2023-03-14T07:08:18;2.97;;;1.23;;
52480;SDS011;38393;52.404;13.532;2023-03-14T07:10:43;4.10;;;1.50;;
52480;SDS011;38393;52.404;13.532;2023-03-14T07:13:08;2.57;;;1.20;;
52480;SDS011;38393;52.404;13.532;2023-03-14T07:15:34;3.43;;;1.20;;
52480;SDS011;38393;52.404;13.532;2023-03-14T07:18:00;2.87;;;1.40;;
52480;SDS011;38393;52.404;13.532;2023-03-14T07:20:26;2.63;;;1.17;;
52480;SDS011;38393;52.404;13.532;2023-03-14T07:22:51;3.63;;;1.30;;
52480;SDS011;38393;52.404;13.532;2023-03-14T07:25:17;3.60;;;1.37;;
52480;SDS011;38393;52.404;13.532;2023-03-14T07:27:43;3.30;;;1.43;;
52480;SDS011;38393;52.404;13.532;2023-03-14T07:30:10;4.77;;;1.57;;
52480;SDS011;38393;52.404;13.532;2023-03-14T07:32:36;6.40;;;1.50;;
52480;SDS011;38393;52.404;13.532;2023-03-14T07:35:02;6.33;;;1.23;;
52480;SDS011;38393;52.404;13.532;2023-03-14T07:37:28;3.60;;;1.20;;
52480;SDS011;38393;52.404;13.532;2023-03-14T07:39:53;7.37;;;1.23;;
52480;SDS011;38393;52.404;13.532;2023-03-14T07:42:19;3.67;;;1.43;;
52480;SDS011;38393;52.404;13.532;2023-03-14T07:44:44;4.20;;;1.23;;
52480;SDS011;38393;52.404;13.532;2023-03-14T07:47:10;2.53;;;1.30;;
52480;SDS011;38393;52.404;13.532;2023-03-14T07:49:35;5.10;;;1.20;;
52480;SDS011;38393;52.404;13.532;2023-03-14T07:52:01;4.50;;;1.53;;
52480;SDS011;38393;52.404;13.532;2023-03-14T07:54:26;3.90;;;1.60;;
52480;SDS011;38393;52.404;13.532;2023-03-14T07:56:52;5.80;;;1.47;;
52480;SDS011;38393;52.404;13.532;2023-03-14T07:59:17;3.53;;;1.30;;
52480;SDS011;38393;52.404;13.532;2023-03-14T08:01:43;3.83;;;1.20;;
52480;SDS011;38393;52.404;13.532;2023-03-14T08:04:09;4.97;;;1.60;;
52480;SDS011;38393;52.404;13.532;2023-03-14T08:06:35;3.13;;;1.40;;
52480;SDS011;38393;52.404;13.532;2023-03-14T08:09:01;3.20;;;1.30;;
52480;SDS011;38393;52.404;13.532;2023-03-14T08:11:27;3.37;;;1.60;;
52480;SDS011;38393;52.404;13.532;2023-03-14T08:13:53;4.73;;;1.40;;
52480;SDS011;38393;52.404;13.532;2023-03-14T08:16:19;4.80;;;1.47;;
52480;SDS011;38393;52.404;13.532;2023-03-14T08:18:45;6.33;;;1.70;;
52480;SDS011;38393;52.404;13.532;2023-03-14T08:21:13;3.83;;;1.73;;
52480;SDS011;38393;52.404;13.532;2023-03-14T08:23:38;2.73;;;1.33;;
52480;SDS011;38393;52.404;13.532;2023-03-14T08:26:04;3.50;;;1.40;;
52480;SDS011;38393;52.404;13.532;2023-03-14T08:28:30;2.70;;;1.20;;
52480;SDS011;38393;52.404;13.532;2023-03-14T08:30:57;5.50;;;1.30;;
52480;SDS011;38393;52.404;13.532;2023-03-14T08:33:24;5.97;;;2.03;;
52480;SDS011;38393;52.404;13.532;2023-03-14T08:35:57;4.03;;;1.20;;
52480;SDS011;38393;52.404;13.532;2023-03-14T08:38:23;3.60;;;1.50;;
52480;SDS011;38393;52.404;13.532;2023-03-14T08:40:55;6.00;;;1.40;;
52480;SDS011;38393;52.404;13.532;2023-03-14T08:43:25;4.33;;;1.60;;
52480;SDS011;38393;52.404;13.532;2023-03-14T08:45:51;6.57;;;1.33;;
52480;SDS011;38393;52.404;13.532;2023-03-14T08:48:16;3.83;;;1.47;;
52480;SDS011;38393;52.404;13.532;2023-03-14T08:50:42;3.03;;;1.27;;
52480;SDS011;38393;52.404;13.532;2023-03-14T08:53:08;3.13;;;1.17;;
52480;SDS011;38393;52.404;13.532;2023-03-14T08:55:34;4.80;;;1.40;;
52480;SDS011;38393;52.404;13.532;2023-03-14T08:58:00;5.40;;;1.30;;
52480;SDS011;38393;52.404;13.532;2023-03-14T09:00:25;5.23;;;1.43;;
52480;SDS011;38393;52.404;13.532;2023-03-14T09:02:51;2.73;;;1.20;;
52480;SDS011;38393;52.404;13.532;2023-03-14T09:05:17;4.97;;;1.50;;
52480;SDS011;38393;52.404;13.532;2023-03-14T09:07:42;4.27;;;1.10;;
52480;SDS011;38393;52.404;13.532;2023-03-14T09:10:08;3.30;;;1.40;;
52480;SDS011;38393;52.404;13.532;2023-03-14T09:12:35;4.17;;;1.30;;
52480;SDS011;38393;52.404;13.532;2023-03-14T09:15:00;4.33;;;1.20;;
52480;SDS011;38393;52.404;13.532;2023-03-14T09:17:26;10.27;;;1.80;;
52480;SDS011;38393;52.404;13.532;2023-03-14T09:19:51;3.80;;;1.47;;
52480;SDS011;38393;52.404;13.532;2023-03-14T09:22:16;4.87;;;1.60;;
52480;SDS011;38393;52.404;13.532;2023-03-14T09:24:42;4.93;;;1.40;;
52480;SDS011;38393;52.404;13.532;2023-03-14T09:27:08;4.90;;;1.60;;
52480;SDS011;38393;52.404;13.532;2023-03-14T09:29:34;4.47;;;1.43;;
52480;SDS011;38393;52.404;13.532;2023-03-14T09:32:00;4.70;;;1.50;;
52480;SDS011;38393;52.404;13.532;2023-03-14T09:34:25;3.70;;;1.30;;
52480;SDS011;38393;52.404;13.532;2023-03-14T09:36:51;6.83;;;1.57;;
52480;SDS011;38393;52.404;13.532;2023-03-14T09:39:17;2.63;;;1.23;;
52480;SDS011;38393;52.404;13.532;2023-03-14T09:41:43;5.03;;;1.50;;
52480;SDS011;38393;52.404;13.532;2023-03-14T09:44:33;3.17;;;1.80;;
52480;SDS011;38393;52.404;13.532;2023-03-14T09:47:06;5.67;;;1.20;;
52480;SDS011;38393;52.404;13.532;2023-03-14T09:49:37;3.87;;;1.03;;
52480;SDS011;38393;52.404;13.532;2023-03-14T09:52:06;3.37;;;1.30;;
52480;SDS011;38393;52.404;13.532;2023-03-14T09:54:45;2.67;;;1.30;;
52480;SDS011;38393;52.404;13.532;2023-03-14T09:57:15;4.80;;;1.23;;
52480;SDS011;38393;52.404;13.532;2023-03-14T09:59:47;4.37;;;1.30;;
52480;SDS011;38393;52.404;13.532;2023-03-14T10:02:16;2.50;;;1.20;;
52480;SDS011;38393;52.404;13.532;2023-03-14T10:04:46;4.30;;;1.30;;
52480;SDS011;38393;52.404;13.532;2023-03-14T10:07:13;6.70;;;1.10;;
52480;SDS011;38393;52.404;13.532;2023-03-14T10:09:42;3.57;;;1.30;;
52480;SDS011;38393;52.404;13.532;2023-03-14T10:12:09;3.50;;;1.20;;
52480;SDS011;38393;52.404;13.532;2023-03-14T10:14:36;3.10;;;1.10;;
52480;SDS011;38393;52.404;13.532;2023-03-14T10:17:10;3.20;;;1.10;;
52480;SDS011;38393;52.404;13.532;2023-03-14T10:19:50;3.37;;;1.00;;
52480;SDS011;38393;52.404;13.532;2023-03-14T10:22:20;3.80;;;0.87;;
52480;SDS011;38393;52.404;13.532;2023-03-14T10:24:51;4.97;;;1.00;;
52480;SDS011;38393;52.404;13.532;2023-03-14T10:27:26;4.27;;;1.17;;
52480;SDS011;38393;52.404;13.532;2023-03-14T10:29:55;2.57;;;1.10;;
52480;SDS011;38393;52.404;13.532;2023-03-14T10:32:27;3.30;;;1.00;;
52480;SDS011;38393;52.404;13.532;2023-03-14T10:37:59;3.43;;;1.10;;
52480;SDS011;38393;52.404;13.532;2023-03-14T10:40:27;4.70;;;0.90;;
52480;SDS011;38393;52.404;13.532;2023-03-14T10:42:58;3.13;;;1.00;;
52480;SDS011;38393;52.404;13.532;2023-03-14T10:45:28;4.17;;;0.90;;
52480;SDS011;38393;52.404;13.532;2023-03-14T10:47:58;3.20;;;0.80;;
52480;SDS011;38393;52.404;13.532;2023-03-14T10:50:30;2.43;;;0.80;;
52480;SDS011;38393;52.404;13.532;2023-03-14T10:52:57;1.73;;;1.00;;
52480;SDS011;38393;52.404;13.532;2023-03-14T10:55:38;3.43;;;0.90;;
52480;SDS011;38393;52.404;13.532;2023-03-14T11:00:51;1.90;;;0.80;;
52480;SDS011;38393;52.404;13.532;2023-03-14T11:03:37;1.97;;;0.83;;
52480;SDS011;38393;52.404;13.532;2023-03-14T11:06:11;2.63;;;1.00;;
52480;SDS011;38393;52.404;13.532;2023-03-14T11:08:49;1.17;;;0.70;;
52480;SDS011;38393;52.404;13.532;2023-03-14T11:11:31;1.70;;;0.90;;
52480;SDS011;38393;52.404;13.532;2023-03-14T11:16:44;2.77;;;0.90;;
52480;SDS011;38393;52.404;13.532;2023-03-14T11:19:35;1.50;;;0.90;;
52480;SDS011;38393;52.404;13.532;2023-03-14T11:22:09;2.17;;;0.80;;
52480;SDS011;38393;52.404;13.532;2023-03-14T11:25:02;2.60;;;1.10;;
52480;SDS011;38393;52.404;13.532;2023-03-14T11:27:35;5.50;;;0.90;;
52480;SDS011;38393;52.404;13.532;2023-03-14T11:35:32;2.30;;;1.00;;
52480;SDS011;38393;52.404;13.532;2023-03-14T11:38:09;2.53;;;1.00;;
52480;SDS011;38393;52.404;13.532;2023-03-14T11:40:52;2.20;;;0.93;;
52480;SDS011;38393;52.404;13.532;2023-03-14T11:43:44;1.70;;;0.90;;
52480;SDS011;38393;52.404;13.532;2023-03-14T11:46:16;4.03;;;1.20;;
52480;SDS011;38393;52.404;13.532;2023-03-14T11:48:56;3.97;;;1.00;;
52480;SDS011;38393;52.404;13.532;2023-03-14T11:51:24;3.30;;;1.03;;
52480;SDS011;38393;52.404;13.532;2023-03-14T11:59:16;3.23;;;1.00;;
52480;SDS011;38393;52.404;13.532;2023-03-14T12:01:51;4.03;;;1.27;;
52480;SDS011;38393;52.404;13.532;2023-03-14T12:07:31;5.37;;;1.20;;
52480;SDS011;38393;52.404;13.532;2023-03-14T12:10:08;1.47;;;0.80;;
52480;SDS011;38393;52.404;13.532;2023-03-14T12:12:34;2.00;;;1.03;;
52480;SDS011;38393;52.404;13.532;2023-03-14T12:15:00;5.20;;;0.90;;
52480;SDS011;38393;52.404;13.532;2023-03-14T12:17:34;2.80;;;1.00;;
52480;SDS011;38393;52.404;13.532;2023-03-14T12:20:20;3.13;;;1.00;;
52480;SDS011;38393;52.404;13.532;2023-03-14T12:22:49;0.93;;;0.70;;
52480;SDS011;38393;52.404;13.532;2023-03-14T12:25:23;2.20;;;1.07;;
52480;SDS011;38393;52.404;13.532;2023-03-14T12:30:23;2.60;;;0.83;;
52480;SDS011;38393;52.404;13.532;2023-03-14T12:33:10;2.47;;;0.70;;
52480;SDS011;38393;52.404;13.532;2023-03-14T12:35:40;2.30;;;0.90;;
52480;SDS011;38393;52.404;13.532;2023-03-14T12:38:53;1.73;;;0.80;;
52480;SDS011;38393;52.404;13.532;2023-03-14T12:41:23;2.87;;;1.00;;
52480;SDS011;38393;52.404;13.532;2023-03-14T12:43:54;4.30;;;1.00;;
52480;SDS011;38393;52.404;13.532;2023-03-14T12:46:21;2.37;;;0.80;;
52480;SDS011;38393;52.404;13.532;2023-03-14T12:48:54;3.27;;;0.83;;
52480;SDS011;38393;52.404;13.532;2023-03-14T12:56:57;2.83;;;0.70;;
52480;SDS011;38393;52.404;13.532;2023-03-14T12:59:36;3.23;;;0.83;;
52480;SDS011;38393;52.404;13.532;2023-03-14T13:02:26;1.87;;;0.70;;
52480;SDS011;38393;52.404;13.532;2023-03-14T13:05:00;2.20;;;0.70;;
52480;SDS011;38393;52.404;13.532;2023-03-14T13:07:33;3.80;;;0.60;;
52480;SDS011;38393;52.404;13.532;2023-03-14T13:12:37;2.80;;;0.90;;
52480;SDS011;38393;52.404;13.532;2023-03-14T13:18:11;1.13;;;0.70;;
52480;SDS011;38393;52.404;13.532;2023-03-14T13:21:01;1.10;;;0.60;;
52480;SDS011;38393;52.404;13.532;2023-03-14T13:23:31;1.90;;;0.70;;
52480;SDS011;38393;52.404;13.532;2023-03-14T13:25:59;2.20;;;0.60;;
52480;SDS011;38393;52.404;13.532;2023-03-14T13:28:26;1.43;;;0.67;;
52480;SDS011;38393;52.404;13.532;2023-03-14T13:30:57;3.27;;;0.70;;
52480;SDS011;38393;52.404;13.532;2023-03-14T13:33:25;1.53;;;0.80;;
52480;SDS011;38393;52.404;13.532;2023-03-14T13:38:20;0.80;;;0.60;;
52480;SDS011;38393;52.404;13.532;2023-03-14T13:40:48;2.30;;;0.70;;
52480;SDS011;38393;52.404;13.532;2023-03-14T13:43:28;1.87;;;0.70;;
52480;SDS011;38393;52.404;13.532;2023-03-14T13:46:00;0.70;;;0.60;;
52480;SDS011;38393;52.404;13.532;2023-03-14T13:48:29;1.47;;;0.77;;
52480;SDS011;38393;52.404;13.532;2023-03-14T13:51:02;1.23;;;0.80;;
52480;SDS011;38393;52.404;13.532;2023-03-14T13:53:30;3.17;;;0.80;;
52480;SDS011;38393;52.404;13.532;2023-03-14T13:55:56;1.03;;;0.70;;
52480;SDS011;38393;52.404;13.532;2023-03-14T13:58:27;3.00;;;0.90;;
52480;SDS011;38393;52.404;13.532;2023-03-14T14:00:58;2.10;;;0.77;;
52480;SDS011;38393;52.404;13.532;2023-03-14T14:03:27;0.87;;;0.60;;
52480;SDS011;38393;52.404;13.532;2023-03-14T14:05:54;1.63;;;0.60;;
52480;SDS011;38393;52.404;13.532;2023-03-14T14:08:22;2.83;;;0.60;;
52480;SDS011;38393;52.404;13.532;2023-03-14T14:10:48;0.70;;;0.60;;
52480;SDS011;38393;52.404;13.532;2023-03-14T14:13:15;1.70;;;0.70;;
52480;SDS011;38393;52.404;13.532;2023-03-14T14:15:44;1.73;;;0.60;;
52480;SDS011;38393;52.404;13.532;2023-03-14T14:18:16;1.20;;;0.70;;
52480;SDS011;38393;52.404;13.532;2023-03-14T14:20:44;5.27;;;0.80;;
52480;SDS011;38393;52.404;13.532;2023-03-14T14:23:13;3.27;;;0.70;;
52480;SDS011;38393;52.404;13.532;2023-03-14T14:25:42;0.70;;;0.47;;
52480;SDS011;38393;52.404;13.532;2023-03-14T14:28:22;1.90;;;0.60;;
52480;SDS011;38393;52.404;13.532;2023-03-14T14:39:05;2.10;;;0.70;;
52480;SDS011;38393;52.404;13.532;2023-03-14T14:41:47;1.10;;;0.70;;
52480;SDS011;38393;52.404;13.532;2023-03-14T14:44:16;0.53;;;0.50;;
52480;SDS011;38393;52.404;13.532;2023-03-14T14:46:44;1.07;;;0.70;;
52480;SDS011;38393;52.404;13.532;2023-03-14T14:49:10;0.93;;;0.50;;
52480;SDS011;38393;52.404;13.532;2023-03-14T14:51:41;1.43;;;0.67;;
52480;SDS011;38393;52.404;13.532;2023-03-14T14:54:15;0.77;;;0.50;;
52480;SDS011;38393;52.404;13.532;2023-03-14T14:56:49;1.10;;;0.67;;
52480;SDS011;38393;52.404;13.532;2023-03-14T14:59:21;1.37;;;0.60;;
52480;SDS011;38393;52.404;13.532;2023-03-14T15:01:57;2.20;;;0.80;;
52480;SDS011;38393;52.404;13.532;2023-03-14T15:04:24;0.70;;;0.63;;
52480;SDS011;38393;52.404;13.532;2023-03-14T15:06:50;3.07;;;0.80;;
52480;SDS011;38393;52.404;13.532;2023-03-14T15:09:17;1.13;;;0.77;;
52480;SDS011;38393;52.404;13.532;2023-03-14T15:11:43;4.50;;;0.70;;
52480;SDS011;38393;52.404;13.532;2023-03-14T15:14:09;1.93;;;0.80;;
52480;SDS011;38393;52.404;13.532;2023-03-14T15:16:35;0.80;;;0.60;;
52480;SDS011;38393;52.404;13.532;2023-03-14T15:19:01;3.03;;;0.70;;
52480;SDS011;38393;52.404;13.532;2023-03-14T15:21:30;0.70;;;0.60;;
52480;SDS011;38393;52.404;13.532;2023-03-14T15:23:56;1.00;;;0.60;;
52480;SDS011;38393;52.404;13.532;2023-03-14T15:26:23;1.50;;;0.80;;
52480;SDS011;38393;52.404;13.532;2023-03-14T15:28:50;1.30;;;0.70;;
52480;SDS011;38393;52.404;13.532;2023-03-14T15:31:16;1.23;;;0.70;;
52480;SDS011;38393;52.404;13.532;2023-03-14T15:33:43;1.97;;;1.07;;
52480;SDS011;38393;52.404;13.532;2023-03-14T15:36:15;2.10;;;0.60;;